sensor_id;sensor_type;location;lat;lon;timestamp;pressure;altitude;pressure_sealevel;temperature;humidity
11912;BME280;6016;41.928;25.556;2024-03-02T00:00:50;98715.34;;;11.30;79.63
11912;BME280;6016;41.928;25.556;2024-03-02T00:03:18;98711.63;;;11.23;80.13
11912;BME280;6016;41.928;25.556;2024-03-02T00:05:52;98714.28;;;11.23;79.98
11912;BME280;6016;41.928;25.556;2024-03-02T00:08:23;98711.63;;;11.23;80.14
11912;BME280;6016;41.928;25.556;2024-03-02T00:10:52;98708.34;;;11.21;80.61
11912;BME280;6016;41.928;25.556;2024-03-02T00:13:21;98709.69;;;11.25;79.90
11912;BME280;6016;41.928;25.556;2024-03-02T00:15:52;98644.00;;;10.95;80.08
11912;BME280;6016;41.928;25.556;2024-03-02T00:18:30;98617.56;;;10.51;80.77
11912;BME280;6016;41.928;25.556;2024-03-02T00:20:59;98696.31;;;11.00;81.17
11912;BME280;6016;41.928;25.556;2024-03-02T00:23:27;98694.88;;;10.88;81.24
11912;BME280;6016;41.928;25.556;2024-03-02T00:25:56;98697.88;;;10.93;81.36
11912;BME280;6016;41.928;25.556;2024-03-02T00:28:26;98617.41;;;10.34;81.49
11912;BME280;6016;41.928;25.556;2024-03-02T00:30:58;98694.56;;;10.91;81.36
11912;BME280;6016;41.928;25.556;2024-03-02T00:33:28;98694.41;;;10.92;81.56
11912;BME280;6016;41.928;25.556;2024-03-02T00:35:58;98625.94;;;10.46;81.84
11912;BME280;6016;41.928;25.556;2024-03-02T00:38:27;98690.75;;;10.85;81.14
11912;BME280;6016;41.928;25.556;2024-03-02T00:40:59;98643.94;;;10.69;82.62
11912;BME280;6016;41.928;25.556;2024-03-02T00:43:47;98680.31;;;11.02;81.77
11912;BME280;6016;41.928;25.556;2024-03-02T00:46:20;98676.91;;;10.91;80.64
11912;BME280;6016;41.928;25.556;2024-03-02T00:48:54;98683.13;;;10.82;81.79
11912;BME280;6016;41.928;25.556;2024-03-02T00:51:26;98605.03;;;10.35;81.52
11912;BME280;6016;41.928;25.556;2024-03-02T00:53:54;98392.88;;;9.04;81.52
11912;BME280;6016;41.928;25.556;2024-03-02T00:56:22;98647.31;;;10.61;82.06
11912;BME280;6016;41.928;25.556;2024-03-02T00:58:49;98631.72;;;10.50;82.56
11912;BME280;6016;41.928;25.556;2024-03-02T01:01:20;98673.56;;;10.81;82.16
11912;BME280;6016;41.928;25.556;2024-03-02T01:03:47;98620.97;;;10.43;82.03
11912;BME280;6016;41.928;25.556;2024-03-02T01:06:14;98649.75;;;10.54;82.79
11912;BME280;6016;41.928;25.556;2024-03-02T01:08:43;98674.69;;;10.78;82.65
11912;BME280;6016;41.928;25.556;2024-03-02T01:11:10;98674.91;;;10.85;82.01
11912;BME280;6016;41.928;25.556;2024-03-02T01:13:39;98678.75;;;10.91;82.34
11912;BME280;6016;41.928;25.556;2024-03-02T01:16:06;98637.44;;;10.63;81.82
11912;BME280;6016;41.928;25.556;2024-03-02T01:18:33;98677.97;;;10.98;81.88
11912;BME280;6016;41.928;25.556;2024-03-02T01:21:03;98693.50;;;11.02;81.13
11912;BME280;6016;41.928;25.556;2024-03-02T01:23:30;98687.88;;;10.96;81.95
11912;BME280;6016;41.928;25.556;2024-03-02T01:25:59;98686.72;;;10.99;81.60
11912;BME280;6016;41.928;25.556;2024-03-02T01:28:26;98679.19;;;11.04;82.19
11912;BME280;6016;41.928;25.556;2024-03-02T01:30:54;98687.03;;;10.96;81.03
11912;BME280;6016;41.928;25.556;2024-03-02T01:33:21;98624.56;;;10.60;81.06
11912;BME280;6016;41.928;25.556;2024-03-02T01:35:48;98671.75;;;10.81;82.18
11912;BME280;6016;41.928;25.556;2024-03-02T01:38:15;98677.63;;;10.57;83.06
11912;BME280;6016;41.928;25.556;2024-03-02T01:40:42;98670.75;;;10.82;82.54
11912;BME280;6016;41.928;25.556;2024-03-02T01:43:12;98672.50;;;10.74;82.75
11912;BME280;6016;41.928;25.556;2024-03-02T01:45:38;98687.72;;;10.80;83.81
11912;BME280;6016;41.928;25.556;2024-03-02T01:48:06;98665.56;;;10.73;82.91
11912;BME280;6016;41.928;25.556;2024-03-02T01:50:33;98553.28;;;9.97;83.22
11912;BME280;6016;41.928;25.556;2024-03-02T01:53:01;98664.94;;;10.61;84.06
11912;BME280;6016;41.928;25.556;2024-03-02T01:55:28;98662.47;;;10.59;84.01
11912;BME280;6016;41.928;25.556;2024-03-02T01:58:00;98630.94;;;10.39;83.90
11912;BME280;6016;41.928;25.556;2024-03-02T02:00:31;98668.66;;;10.68;83.71
11912;BME280;6016;41.928;25.556;2024-03-02T02:02:58;98624.19;;;10.37;83.02
11912;BME280;6016;41.928;25.556;2024-03-02T02:05:26;98659.22;;;10.83;83.77
11912;BME280;6016;41.928;25.556;2024-03-02T02:07:56;98660.59;;;10.88;83.64
11912;BME280;6016;41.928;25.556;2024-03-02T02:10:24;98639.94;;;10.83;83.12
11912;BME280;6016;41.928;25.556;2024-03-02T02:12:51;98649.94;;;10.97;82.70
11912;BME280;6016;41.928;25.556;2024-03-02T02:15:24;98579.59;;;10.62;82.65
11912;BME280;6016;41.928;25.556;2024-03-02T02:17:53;98654.59;;;10.86;82.52
11912;BME280;6016;41.928;25.556;2024-03-02T02:20:20;98661.41;;;10.70;82.95
11912;BME280;6016;41.928;25.556;2024-03-02T02:22:59;98651.75;;;10.79;83.09
11912;BME280;6016;41.928;25.556;2024-03-02T02:25:26;98652.28;;;10.82;83.90
11912;BME280;6016;41.928;25.556;2024-03-02T02:27:53;98646.25;;;10.90;82.85
11912;BME280;6016;41.928;25.556;2024-03-02T02:30:21;98645.13;;;10.93;82.53
11912;BME280;6016;41.928;25.556;2024-03-02T02:32:48;98651.38;;;10.92;82.71
11912;BME280;6016;41.928;25.556;2024-03-02T02:35:16;98627.75;;;10.64;82.90
11912;BME280;6016;41.928;25.556;2024-03-02T02:37:43;98581.31;;;10.35;83.51
11912;BME280;6016;41.928;25.556;2024-03-02T02:40:12;98659.84;;;10.77;82.75
11912;BME280;6016;41.928;25.556;2024-03-02T02:42:39;98606.66;;;10.46;83.08
11912;BME280;6016;41.928;25.556;2024-03-02T02:45:07;98646.66;;;10.77;83.12
11912;BME280;6016;41.928;25.556;2024-03-02T02:47:34;98644.38;;;10.82;83.46
11912;BME280;6016;41.928;25.556;2024-03-02T02:50:02;98636.09;;;10.77;82.91
11912;BME280;6016;41.928;25.556;2024-03-02T02:52:32;98648.06;;;10.90;83.14
11912;BME280;6016;41.928;25.556;2024-03-02T02:55:03;98540.97;;;10.16;82.81
11912;BME280;6016;41.928;25.556;2024-03-02T02:57:31;98571.47;;;10.37;82.95
11912;BME280;6016;41.928;25.556;2024-03-02T03:00:02;98618.31;;;10.61;82.49
11912;BME280;6016;41.928;25.556;2024-03-02T03:02:36;98641.06;;;10.80;82.95
11912;BME280;6016;41.928;25.556;2024-03-02T03:05:04;98647.19;;;10.81;82.88
11912;BME280;6016;41.928;25.556;2024-03-02T03:07:31;98636.75;;;10.79;83.02
11912;BME280;6016;41.928;25.556;2024-03-02T03:09:59;98592.94;;;10.42;83.49
11912;BME280;6016;41.928;25.556;2024-03-02T03:12:26;98636.56;;;10.73;84.21
11912;BME280;6016;41.928;25.556;2024-03-02T03:14:54;98637.44;;;10.81;82.76
11912;BME280;6016;41.928;25.556;2024-03-02T03:17:21;98649.97;;;10.79;82.60
11912;BME280;6016;41.928;25.556;2024-03-02T03:19:49;98639.50;;;10.69;82.97
11912;BME280;6016;41.928;25.556;2024-03-02T03:22:16;98629.53;;;10.45;82.99
11912;BME280;6016;41.928;25.556;2024-03-02T03:24:43;98631.97;;;10.57;83.29
11912;BME280;6016;41.928;25.556;2024-03-02T03:27:10;98561.50;;;10.12;83.79
11912;BME280;6016;41.928;25.556;2024-03-02T03:29:37;98655.16;;;10.71;83.23
11912;BME280;6016;41.928;25.556;2024-03-02T03:32:06;98651.25;;;10.75;83.55
11912;BME280;6016;41.928;25.556;2024-03-02T03:34:34;98578.00;;;10.33;83.41
11912;BME280;6016;41.928;25.556;2024-03-02T03:37:01;98641.19;;;10.79;82.43
11912;BME280;6016;41.928;25.556;2024-03-02T03:39:28;98618.91;;;10.55;83.57
11912;BME280;6016;41.928;25.556;2024-03-02T03:41:55;98641.81;;;10.73;84.04
11912;BME280;6016;41.928;25.556;2024-03-02T03:44:22;98645.28;;;10.73;84.48
11912;BME280;6016;41.928;25.556;2024-03-02T03:46:49;98643.03;;;10.78;84.08
11912;BME280;6016;41.928;25.556;2024-03-02T03:49:17;98646.03;;;10.83;83.34
11912;BME280;6016;41.928;25.556;2024-03-02T03:51:44;98641.72;;;10.82;82.87
11912;BME280;6016;41.928;25.556;2024-03-02T03:54:11;98628.00;;;10.79;82.85
11912;BME280;6016;41.928;25.556;2024-03-02T03:56:38;98628.41;;;10.84;82.97
11912;BME280;6016;41.928;25.556;2024-03-02T03:59:05;98579.13;;;10.48;82.96
11912;BME280;6016;41.928;25.556;2024-03-02T04:01:32;98629.38;;;10.83;83.71
11912;BME280;6016;41.928;25.556;2024-03-02T04:03:59;98626.34;;;10.78;83.47
11912;BME280;6016;41.928;25.556;2024-03-02T04:06:28;98534.84;;;10.16;83.25
11912;BME280;6016;41.928;25.556;2024-03-02T04:08:55;98542.16;;;10.22;83.47
11912;BME280;6016;41.928;25.556;2024-03-02T04:11:22;98635.00;;;10.88;82.85
11912;BME280;6016;41.928;25.556;2024-03-02T04:13:49;98637.34;;;10.91;83.34
11912;BME280;6016;41.928;25.556;2024-03-02T04:16:16;98636.66;;;10.89;83.80
11912;BME280;6016;41.928;25.556;2024-03-02T04:18:43;98637.50;;;10.90;83.03
11912;BME280;6016;41.928;25.556;2024-03-02T04:21:10;98646.69;;;10.86;83.03
11912;BME280;6016;41.928;25.556;2024-03-02T04:23:39;98646.88;;;10.84;83.48
11912;BME280;6016;41.928;25.556;2024-03-02T04:26:06;98641.63;;;10.92;83.95
11912;BME280;6016;41.928;25.556;2024-03-02T04:28:33;98643.66;;;10.98;82.99
11912;BME280;6016;41.928;25.556;2024-03-02T04:31:00;98637.97;;;10.85;83.30
11912;BME280;6016;41.928;25.556;2024-03-02T04:33:27;98587.03;;;10.66;83.35
11912;BME280;6016;41.928;25.556;2024-03-02T04:35:54;98428.53;;;9.62;82.31
11912;BME280;6016;41.928;25.556;2024-03-02T04:38:21;98647.97;;;11.00;82.78
11912;BME280;6016;41.928;25.556;2024-03-02T04:40:49;98567.78;;;10.48;82.40
11912;BME280;6016;41.928;25.556;2024-03-02T04:43:16;98645.44;;;10.90;82.73
11912;BME280;6016;41.928;25.556;2024-03-02T04:45:44;98574.19;;;10.45;84.00
11912;BME280;6016;41.928;25.556;2024-03-02T04:48:11;98645.84;;;11.03;83.80
11912;BME280;6016;41.928;25.556;2024-03-02T04:50:38;98645.19;;;11.01;83.97
11912;BME280;6016;41.928;25.556;2024-03-02T04:53:05;98648.31;;;11.05;83.34
11912;BME280;6016;41.928;25.556;2024-03-02T04:55:33;98637.09;;;11.03;82.66
11912;BME280;6016;41.928;25.556;2024-03-02T04:58:30;98628.72;;;11.07;83.46
11912;BME280;6016;41.928;25.556;2024-03-02T05:00:57;98632.66;;;11.03;82.66
11912;BME280;6016;41.928;25.556;2024-03-02T05:03:24;98616.50;;;11.06;83.27
11912;BME280;6016;41.928;25.556;2024-03-02T05:05:53;98634.13;;;11.06;82.94
11912;BME280;6016;41.928;25.556;2024-03-02T05:08:20;98600.50;;;10.81;83.25
11912;BME280;6016;41.928;25.556;2024-03-02T05:10:47;98642.38;;;11.03;82.57
11912;BME280;6016;41.928;25.556;2024-03-02T05:13:14;98630.94;;;10.94;82.16
11912;BME280;6016;41.928;25.556;2024-03-02T05:15:44;98625.09;;;10.82;83.93
11912;BME280;6016;41.928;25.556;2024-03-02T05:18:12;98662.38;;;10.87;83.90
11912;BME280;6016;41.928;25.556;2024-03-02T05:20:39;98636.00;;;10.87;84.28
11912;BME280;6016;41.928;25.556;2024-03-02T05:23:06;98574.59;;;10.40;83.91
11912;BME280;6016;41.928;25.556;2024-03-02T05:25:33;98629.16;;;10.76;84.23
11912;BME280;6016;41.928;25.556;2024-03-02T05:28:00;98503.00;;;9.91;84.27
11912;BME280;6016;41.928;25.556;2024-03-02T05:30:27;98634.00;;;10.81;84.44
11912;BME280;6016;41.928;25.556;2024-03-02T05:32:56;98643.38;;;10.83;85.37
11912;BME280;6016;41.928;25.556;2024-03-02T05:35:23;98562.72;;;10.36;84.48
11912;BME280;6016;41.928;25.556;2024-03-02T05:37:50;98608.00;;;10.50;85.26
11912;BME280;6016;41.928;25.556;2024-03-02T05:40:17;98640.97;;;10.90;84.70
11912;BME280;6016;41.928;25.556;2024-03-02T05:42:44;98646.41;;;10.89;84.32
11912;BME280;6016;41.928;25.556;2024-03-02T05:45:12;98638.50;;;10.89;85.23
11912;BME280;6016;41.928;25.556;2024-03-02T05:47:42;98626.66;;;10.75;85.01
11912;BME280;6016;41.928;25.556;2024-03-02T05:50:10;98669.19;;;10.90;84.33
11912;BME280;6016;41.928;25.556;2024-03-02T05:52:37;98656.22;;;10.60;85.26
11912;BME280;6016;41.928;25.556;2024-03-02T05:55:04;98679.41;;;10.93;85.83
11912;BME280;6016;41.928;25.556;2024-03-02T05:57:31;98689.84;;;10.94;84.72
11912;BME280;6016;41.928;25.556;2024-03-02T06:00:13;98680.31;;;11.02;83.98
11912;BME280;6016;41.928;25.556;2024-03-02T06:02:42;98673.91;;;11.04;84.01
11912;BME280;6016;41.928;25.556;2024-03-02T06:05:10;98625.34;;;10.52;83.96
11912;BME280;6016;41.928;25.556;2024-03-02T06:07:37;98607.69;;;10.53;85.47
11912;BME280;6016;41.928;25.556;2024-03-02T06:10:05;98625.56;;;10.59;85.36
11912;BME280;6016;41.928;25.556;2024-03-02T06:12:32;98542.16;;;10.04;84.92
11912;BME280;6016;41.928;25.556;2024-03-02T06:14:59;98676.91;;;10.91;85.60
11912;BME280;6016;41.928;25.556;2024-03-02T06:17:27;98676.31;;;10.97;85.41
11912;BME280;6016;41.928;25.556;2024-03-02T06:19:54;98665.59;;;10.99;83.58
11912;BME280;6016;41.928;25.556;2024-03-02T06:22:22;98667.78;;;11.04;84.20
11912;BME280;6016;41.928;25.556;2024-03-02T06:24:50;98666.34;;;11.09;84.56
11912;BME280;6016;41.928;25.556;2024-03-02T06:27:17;98671.03;;;11.16;84.22
11912;BME280;6016;41.928;25.556;2024-03-02T06:29:44;98602.94;;;10.75;83.27
11912;BME280;6016;41.928;25.556;2024-03-02T06:32:11;98660.66;;;11.22;82.94
11912;BME280;6016;41.928;25.556;2024-03-02T06:34:38;98591.53;;;10.74;83.24
11912;BME280;6016;41.928;25.556;2024-03-02T06:37:05;98637.94;;;11.03;83.33
11912;BME280;6016;41.928;25.556;2024-03-02T06:39:33;98673.28;;;11.10;83.87
11912;BME280;6016;41.928;25.556;2024-03-02T06:42:01;98672.00;;;11.15;83.81
11912;BME280;6016;41.928;25.556;2024-03-02T06:44:28;98657.19;;;10.95;83.59
11912;BME280;6016;41.928;25.556;2024-03-02T06:46:55;98643.88;;;11.05;83.47
11912;BME280;6016;41.928;25.556;2024-03-02T06:49:22;98417.22;;;9.70;82.83
11912;BME280;6016;41.928;25.556;2024-03-02T06:51:48;98650.81;;;11.06;82.94
11912;BME280;6016;41.928;25.556;2024-03-02T06:54:15;98671.66;;;10.91;84.09
11912;BME280;6016;41.928;25.556;2024-03-02T06:56:44;98665.38;;;10.92;83.82
11912;BME280;6016;41.928;25.556;2024-03-02T06:59:11;98679.72;;;11.08;83.53
11912;BME280;6016;41.928;25.556;2024-03-02T07:01:37;98674.03;;;11.03;83.25
11912;BME280;6016;41.928;25.556;2024-03-02T07:04:04;98680.38;;;11.10;82.90
11912;BME280;6016;41.928;25.556;2024-03-02T07:06:32;98678.09;;;11.15;83.14
11912;BME280;6016;41.928;25.556;2024-03-02T07:08:59;98681.13;;;11.20;82.21
11912;BME280;6016;41.928;25.556;2024-03-02T07:11:26;98649.75;;;10.99;82.42
11912;BME280;6016;41.928;25.556;2024-03-02T07:13:54;98645.31;;;11.00;82.83
11912;BME280;6016;41.928;25.556;2024-03-02T07:16:21;98614.00;;;11.05;82.76
11912;BME280;6016;41.928;25.556;2024-03-02T07:18:54;98599.28;;;10.94;82.37
11912;BME280;6016;41.928;25.556;2024-03-02T07:21:22;98570.72;;;10.89;82.73
11912;BME280;6016;41.928;25.556;2024-03-02T07:23:49;98634.34;;;11.39;82.31
11912;BME280;6016;41.928;25.556;2024-03-02T07:26:16;98658.44;;;11.36;81.61
11912;BME280;6016;41.928;25.556;2024-03-02T07:28:45;98638.75;;;11.30;82.01
11912;BME280;6016;41.928;25.556;2024-03-02T07:31:14;98666.13;;;11.56;81.68
11912;BME280;6016;41.928;25.556;2024-03-02T07:33:44;98665.97;;;11.57;81.50
11912;BME280;6016;41.928;25.556;2024-03-02T07:36:11;98680.19;;;11.56;81.80
11912;BME280;6016;41.928;25.556;2024-03-02T07:38:38;98689.56;;;11.50;80.72
11912;BME280;6016;41.928;25.556;2024-03-02T07:41:06;98689.22;;;11.53;81.85
11912;BME280;6016;41.928;25.556;2024-03-02T07:43:33;98514.59;;;10.52;81.83
11912;BME280;6016;41.928;25.556;2024-03-02T07:46:00;98676.28;;;11.68;81.16
11912;BME280;6016;41.928;25.556;2024-03-02T07:48:29;98683.56;;;11.75;81.65
11912;BME280;6016;41.928;25.556;2024-03-02T07:50:57;98630.59;;;11.50;81.18
11912;BME280;6016;41.928;25.556;2024-03-02T07:53:24;98662.00;;;11.88;80.77
11912;BME280;6016;41.928;25.556;2024-03-02T07:55:51;98658.84;;;11.84;80.44
11912;BME280;6016;41.928;25.556;2024-03-02T07:58:18;98589.13;;;11.34;80.15
11912;BME280;6016;41.928;25.556;2024-03-02T08:00:46;98654.53;;;11.83;79.94
11912;BME280;6016;41.928;25.556;2024-03-02T08:03:13;98661.84;;;11.89;78.96
11912;BME280;6016;41.928;25.556;2024-03-02T08:05:42;98662.78;;;11.80;79.97
11912;BME280;6016;41.928;25.556;2024-03-02T08:08:09;98663.41;;;11.74;79.06
11912;BME280;6016;41.928;25.556;2024-03-02T08:10:37;98682.81;;;11.82;80.27
11912;BME280;6016;41.928;25.556;2024-03-02T08:13:04;98677.50;;;11.82;79.32
11912;BME280;6016;41.928;25.556;2024-03-02T08:15:31;98625.31;;;11.50;80.13
11912;BME280;6016;41.928;25.556;2024-03-02T08:17:58;98676.00;;;11.80;80.30
11912;BME280;6016;41.928;25.556;2024-03-02T08:20:25;98682.00;;;11.90;79.47
11912;BME280;6016;41.928;25.556;2024-03-02T08:22:54;98667.22;;;11.71;79.15
11912;BME280;6016;41.928;25.556;2024-03-02T08:25:21;98688.94;;;11.91;79.58
11912;BME280;6016;41.928;25.556;2024-03-02T08:27:48;98656.19;;;11.76;79.65
11912;BME280;6016;41.928;25.556;2024-03-02T08:30:15;98690.50;;;12.02;79.21
11912;BME280;6016;41.928;25.556;2024-03-02T08:32:43;98688.03;;;12.09;78.89
11912;BME280;6016;41.928;25.556;2024-03-02T08:35:10;98692.53;;;12.17;78.72
11912;BME280;6016;41.928;25.556;2024-03-02T08:37:38;98419.13;;;10.49;78.45
11912;BME280;6016;41.928;25.556;2024-03-02T08:40:09;98687.75;;;12.20;78.04
11912;BME280;6016;41.928;25.556;2024-03-02T08:42:37;98695.31;;;12.07;77.52
11912;BME280;6016;41.928;25.556;2024-03-02T08:45:04;98641.78;;;11.70;79.04
11912;BME280;6016;41.928;25.556;2024-03-02T08:47:31;98686.84;;;12.03;78.75
11912;BME280;6016;41.928;25.556;2024-03-02T08:49:59;98617.44;;;11.58;78.18
11912;BME280;6016;41.928;25.556;2024-03-02T08:52:26;98694.78;;;12.03;78.17
11912;BME280;6016;41.928;25.556;2024-03-02T08:54:53;98605.94;;;11.33;78.93
11912;BME280;6016;41.928;25.556;2024-03-02T08:57:22;98696.69;;;11.93;78.77
11912;BME280;6016;41.928;25.556;2024-03-02T08:59:49;98609.13;;;11.45;78.65
11912;BME280;6016;41.928;25.556;2024-03-02T09:02:16;98696.28;;;12.06;79.01
11912;BME280;6016;41.928;25.556;2024-03-02T09:04:43;98675.91;;;11.98;78.50
11912;BME280;6016;41.928;25.556;2024-03-02T09:07:10;98657.38;;;11.90;78.20
11912;BME280;6016;41.928;25.556;2024-03-02T09:09:37;98695.31;;;12.07;78.12
11912;BME280;6016;41.928;25.556;2024-03-02T09:12:05;98685.63;;;11.89;78.30
11912;BME280;6016;41.928;25.556;2024-03-02T09:14:35;98706.59;;;12.17;78.44
11912;BME280;6016;41.928;25.556;2024-03-02T09:17:03;98693.03;;;12.20;77.98
11912;BME280;6016;41.928;25.556;2024-03-02T09:19:30;98689.91;;;12.25;78.61
11912;BME280;6016;41.928;25.556;2024-03-02T09:21:57;98681.97;;;12.25;77.72
11912;BME280;6016;41.928;25.556;2024-03-02T09:24:24;98685.13;;;12.29;78.27
11912;BME280;6016;41.928;25.556;2024-03-02T09:26:51;98669.53;;;12.09;78.38
11912;BME280;6016;41.928;25.556;2024-03-02T09:29:18;98688.25;;;12.32;78.39
11912;BME280;6016;41.928;25.556;2024-03-02T09:31:47;98665.47;;;12.23;78.48
11912;BME280;6016;41.928;25.556;2024-03-02T09:34:15;98671.22;;;12.18;78.71
11912;BME280;6016;41.928;25.556;2024-03-02T09:36:42;98681.69;;;12.36;78.35
11912;BME280;6016;41.928;25.556;2024-03-02T09:39:09;98669.97;;;12.39;78.20
11912;BME280;6016;41.928;25.556;2024-03-02T09:41:36;98664.66;;;12.47;78.88
11912;BME280;6016;41.928;25.556;2024-03-02T09:44:04;98663.84;;;12.47;78.46
11912;BME280;6016;41.928;25.556;2024-03-02T09:46:31;98661.00;;;12.32;79.32
11912;BME280;6016;41.928;25.556;2024-03-02T09:49:00;98552.44;;;11.65;79.66
11912;BME280;6016;41.928;25.556;2024-03-02T09:51:30;98595.28;;;11.94;79.68
11912;BME280;6016;41.928;25.556;2024-03-02T09:53:57;98658.06;;;12.00;80.28
11912;BME280;6016;41.928;25.556;2024-03-02T09:56:27;98678.84;;;12.30;80.68
11912;BME280;6016;41.928;25.556;2024-03-02T09:58:54;98680.69;;;12.37;80.25
11912;BME280;6016;41.928;25.556;2024-03-02T10:01:21;98686.97;;;12.45;80.12
11912;BME280;6016;41.928;25.556;2024-03-02T10:03:48;98468.19;;;11.03;80.10
11912;BME280;6016;41.928;25.556;2024-03-02T10:06:22;98682.66;;;12.27;80.92
11912;BME280;6016;41.928;25.556;2024-03-02T10:08:48;98679.59;;;12.05;81.10
11912;BME280;6016;41.928;25.556;2024-03-02T10:11:28;98664.97;;;11.93;81.49
11912;BME280;6016;41.928;25.556;2024-03-02T10:14:06;98680.75;;;12.03;82.27
11912;BME280;6016;41.928;25.556;2024-03-02T10:16:37;98669.97;;;11.96;82.94
11912;BME280;6016;41.928;25.556;2024-03-02T10:19:17;98558.44;;;11.41;82.81
11912;BME280;6016;41.928;25.556;2024-03-02T10:21:46;98654.59;;;12.00;81.95
11912;BME280;6016;41.928;25.556;2024-03-02T10:24:14;98582.78;;;11.53;81.30
11912;BME280;6016;41.928;25.556;2024-03-02T10:26:41;98625.69;;;11.55;82.12
11912;BME280;6016;41.928;25.556;2024-03-02T10:29:09;98635.63;;;11.61;82.57
11912;BME280;6016;41.928;25.556;2024-03-02T10:31:37;98657.69;;;11.87;83.44
11912;BME280;6016;41.928;25.556;2024-03-02T10:34:05;98549.31;;;11.27;82.36
11912;BME280;6016;41.928;25.556;2024-03-02T10:36:32;98667.63;;;11.93;82.60
11912;BME280;6016;41.928;25.556;2024-03-02T10:39:03;98663.72;;;12.05;82.69
11912;BME280;6016;41.928;25.556;2024-03-02T10:41:33;98624.16;;;11.79;81.94
11912;BME280;6016;41.928;25.556;2024-03-02T10:44:02;98645.66;;;11.92;81.69
11912;BME280;6016;41.928;25.556;2024-03-02T10:46:30;98659.47;;;12.13;82.42
11912;BME280;6016;41.928;25.556;2024-03-02T10:48:58;98569.56;;;11.61;82.00
11912;BME280;6016;41.928;25.556;2024-03-02T10:51:26;98611.44;;;11.82;81.89
11912;BME280;6016;41.928;25.556;2024-03-02T10:53:54;98611.59;;;11.81;82.17
11912;BME280;6016;41.928;25.556;2024-03-02T10:56:29;98640.94;;;12.04;81.89
11912;BME280;6016;41.928;25.556;2024-03-02T10:59:02;98600.81;;;11.66;83.53
11912;BME280;6016;41.928;25.556;2024-03-02T11:01:29;98639.56;;;12.00;83.03
11912;BME280;6016;41.928;25.556;2024-03-02T11:03:56;98621.03;;;11.84;83.19
11912;BME280;6016;41.928;25.556;2024-03-02T11:06:26;98574.38;;;11.58;83.58
11912;BME280;6016;41.928;25.556;2024-03-02T11:08:57;98632.63;;;11.99;83.35
11912;BME280;6016;41.928;25.556;2024-03-02T11:11:30;98634.72;;;11.87;83.96
11912;BME280;6016;41.928;25.556;2024-03-02T11:14:01;98632.09;;;11.87;84.42
11912;BME280;6016;41.928;25.556;2024-03-02T11:16:34;98653.41;;;11.94;84.66
11912;BME280;6016;41.928;25.556;2024-03-02T11:19:04;98631.97;;;11.97;85.11
11912;BME280;6016;41.928;25.556;2024-03-02T11:21:32;98529.53;;;11.31;84.13
11912;BME280;6016;41.928;25.556;2024-03-02T11:23:59;98561.44;;;11.46;84.82
11912;BME280;6016;41.928;25.556;2024-03-02T11:26:29;98620.03;;;11.85;85.67
11912;BME280;6016;41.928;25.556;2024-03-02T11:29:04;98625.63;;;11.81;85.62
11912;BME280;6016;41.928;25.556;2024-03-02T11:31:57;98626.50;;;11.90;85.61
11912;BME280;6016;41.928;25.556;2024-03-02T11:34:29;98630.44;;;11.86;86.05
11912;BME280;6016;41.928;25.556;2024-03-02T11:36:56;98624.66;;;11.91;86.55
11912;BME280;6016;41.928;25.556;2024-03-02T11:39:24;98617.59;;;11.91;86.19
11912;BME280;6016;41.928;25.556;2024-03-02T11:41:53;98587.91;;;11.63;86.13
11912;BME280;6016;41.928;25.556;2024-03-02T11:44:20;98544.94;;;11.44;86.40
11912;BME280;6016;41.928;25.556;2024-03-02T11:46:52;98622.03;;;11.82;86.60
11912;BME280;6016;41.928;25.556;2024-03-02T11:49:36;98572.72;;;11.57;86.91
11912;BME280;6016;41.928;25.556;2024-03-02T11:52:05;98626.13;;;11.85;86.68
11912;BME280;6016;41.928;25.556;2024-03-02T11:54:33;98588.91;;;11.62;87.50
11912;BME280;6016;41.928;25.556;2024-03-02T11:57:03;98621.63;;;11.69;87.60
11912;BME280;6016;41.928;25.556;2024-03-02T11:59:30;98600.19;;;11.72;87.87
11912;BME280;6016;41.928;25.556;2024-03-02T12:01:58;98612.97;;;11.93;87.88
11912;BME280;6016;41.928;25.556;2024-03-02T12:04:27;98609.19;;;11.96;87.65
11912;BME280;6016;41.928;25.556;2024-03-02T12:06:58;98577.22;;;11.73;87.01
11912;BME280;6016;41.928;25.556;2024-03-02T12:09:26;98604.19;;;11.42;87.53
11912;BME280;6016;41.928;25.556;2024-03-02T12:12:06;98618.22;;;11.85;88.80
11912;BME280;6016;41.928;25.556;2024-03-02T12:14:34;98617.09;;;11.96;87.90
11912;BME280;6016;41.928;25.556;2024-03-02T12:17:02;98613.16;;;12.00;87.29
11912;BME280;6016;41.928;25.556;2024-03-02T12:19:31;98617.41;;;11.93;87.89
11912;BME280;6016;41.928;25.556;2024-03-02T12:21:57;98587.63;;;11.74;88.16
11912;BME280;6016;41.928;25.556;2024-03-02T12:24:27;98613.09;;;11.92;88.38
11912;BME280;6016;41.928;25.556;2024-03-02T12:26:54;98606.84;;;11.93;87.48
11912;BME280;6016;41.928;25.556;2024-03-02T12:29:23;98597.88;;;11.77;87.29
11912;BME280;6016;41.928;25.556;2024-03-02T12:31:51;98559.50;;;11.57;87.37
11912;BME280;6016;41.928;25.556;2024-03-02T12:34:19;98585.97;;;11.81;88.43
11912;BME280;6016;41.928;25.556;2024-03-02T12:36:46;98608.22;;;12.05;87.29
11912;BME280;6016;41.928;25.556;2024-03-02T12:39:15;98567.84;;;11.87;87.03
11912;BME280;6016;41.928;25.556;2024-03-02T12:41:43;98605.94;;;12.19;86.56
11912;BME280;6016;41.928;25.556;2024-03-02T12:44:10;98606.94;;;12.26;86.96
11912;BME280;6016;41.928;25.556;2024-03-02T12:46:38;98629.63;;;11.94;87.47
11912;BME280;6016;41.928;25.556;2024-03-02T12:49:08;98606.75;;;12.11;87.61
11912;BME280;6016;41.928;25.556;2024-03-02T12:51:36;98548.34;;;11.79;87.57
11912;BME280;6016;41.928;25.556;2024-03-02T12:54:05;98483.53;;;11.50;87.14
11912;BME280;6016;41.928;25.556;2024-03-02T12:56:32;98613.56;;;12.38;86.84
11912;BME280;6016;41.928;25.556;2024-03-02T12:58:59;98610.06;;;12.21;86.88
11912;BME280;6016;41.928;25.556;2024-03-02T13:01:26;98612.81;;;11.95;87.97
11912;BME280;6016;41.928;25.556;2024-03-02T13:03:55;98576.25;;;11.82;88.26
11912;BME280;6016;41.928;25.556;2024-03-02T13:06:23;98609.09;;;12.14;88.60